Indianapolis, Indiana
Current Conditions -  °F | °C
As of 8:54 AM on Wednesday 26 Nov 2014 (Local Time) from KIND Reporting Station
Overcast Overcast  
Wind Chill: 20°   Ceiling: 1600
Heat Index: 27°   Visibility: 10mi
Dew Point: 20°   Wind: 6mph
Humidity: 75%   Direction: 110°ESE
Pressure: 30.13"   Gusts: NA
Location:  39.77°N, 86.15°W
Report Text: KIND 261354Z 11005KT 10SM OVC016 M03/M07 A3013 RMK AO2 SLP214 T10281067
Loading
Personal Weather Stations






























Interactive Weather Map New forecast layout! Learn more

10-Day Weather Forecast

Advertisements
Track Severe Weather on mobile